Lake Suzy, Florida
Current Conditions -  °F | °C
As of 1:53 PM on Friday 21 Nov 2014 (Local Time) from KPGD Reporting Station
Overcast Overcast  
Wind Chill: 72°   Ceiling: 6500
Heat Index: 72°   Visibility: 10mi
Dew Point: 59°   Wind: 15mph
Humidity: 64%   Direction: 50°NE
Pressure: 30.18"   Gusts: NA
Location:  27.0717°N, 81.9802°W
Report Text: KPGD 211853Z 05013KT 10SM OVC065 22/15 A3018 RMK AO2 SLP221 T02220150
Loading
Personal Weather Stations






























Interactive Weather Map New forecast layout! Learn more

10-Day Weather Forecast

Advertisements
Track Severe Weather on mobile